METAR AND TAF INFORMATION
METAR FOR UASP
ADDS - METARS form results

(1215 UTC 17 June 2019)
Data provider http://aviationweather.gov/metar/data/
 
METAR text: UASP 171200Z 17004MPS 9999 SCT047 BKN120 22/05 Q1006 R21/0///70 NOSIG RMK QFE744/0992
Conditions at: UASP (PAVLODAR , KZ) observed 1200 UTC 17 June 2019
Temperature: 22.0°C (72°F)
Dewpoint: 5.0°C (41°F) [RH = 33%]
Pressure (altimeter): 29.70 inches Hg (1006.0 mb)
Winds: from the S (170 degrees) at 9 MPH (8 knots; 4.1 m/s)
Visibility: 6 or more miles (10+ km)
Ceiling: 12000 feet AGL
Clouds: scattered clouds at 4700 feet AGL
broken clouds at 12000 feet AGL
Weather: no significant weather observed at this time

METAR text: UASP 171130Z 17004MPS 9999 SCT048 BKN130 21/05 Q1007 R21/0///70 NOSIG RMK QFE744/0992
Conditions at: UASP (PAVLODAR , KZ) observed 1130 UTC 17 June 2019
Temperature: 21.0°C (70°F)
Dewpoint: 5.0°C (41°F) [RH = 35%]
Pressure (altimeter): 29.73 inches Hg (1007.0 mb)
Winds: from the S (170 degrees) at 9 MPH (8 knots; 4.1 m/s)
Visibility: 6 or more miles (10+ km)
Ceiling: 13000 feet AGL
Clouds: scattered clouds at 4800 feet AGL
broken clouds at 13000 feet AGL
Weather: no significant weather observed at this time

Forecast for: UASP (PAVLODAR , KZ)
Text: TAF UASP 171100Z 1712/1721 17005MPS 9999 SCT020CB
Forecast period: 1200 to 2100 UTC 17 June 2019
Forecast type: FROM: standard forecast or significant change
Winds: from the S (170 degrees) at 12 MPH (10 knots; 5.1 m/s)
Visibility: 6 or more miles 10+ km)
Ceiling: at least 12,000 feet AGL
Clouds: scattered clouds at 2000 feet AGL
Weather: no significant weather forecast for this period
Text: TEMPO 1712/1718 20012MPS 3100 -SHRA SCT006 BKN020CB
Forecast period: 1200 to 1800 UTC 17 June 2019
Forecast type: TEMPORARY: The following changes expected for less than half the time period
Winds: from the SSW (200 degrees) at 26 MPH (23 knots; 11.8 m/s)
Visibility: 1.93 miles (3.11 km)
Ceiling: 2000 feet AGL
Clouds: scattered clouds at 600 feet AGL
broken clouds at 2000 feet AGL
Weather: -SHRA  (light rain showers)
Text: TEMPO 1718/1721 3100 BR FU SCT006
Forecast period: 1800 to 2100 UTC 17 June 2019
Forecast type: TEMPORARY: The following changes expected for less than half the time period
Visibility: 1.93 miles (3.11 km)
Ceiling: at least 12,000 feet AGL
Clouds: scattered clouds at 600 feet AGL
Weather: BR FU  (mist, smoke)

 AIRPORT MAP

 RUNWAY INFORMATION

 AIRPORT FREQUENCIES
Type TWR Name TWR Frequency 119.8 MHZ

 AIRPORT NEAR NAVIGATION AIDS
Type NDB Name Pavlodar Frequency 440 KHZ
Type NDB Name Pavlodar Frequency 440 KHZ



2018 Air Astana Virtual Airline